This is the latest recevied weather packets stored in our database for station/object OK1TBF-6. If no packets are shown the sender has not sent any weather packets the latest 10 day(s).
| Time | Temp. | Humidity | Pressure | Rain* | Wind** | Luminosity | Snow |
|---|---|---|---|---|---|---|---|
| 1777657842 | 17.22° C | 42% | 1016.1 hPa | 0 mm | - | - | - |
| 1777656341 | 17.78° C | 40% | 1015.8 hPa | 0 mm | - | - | - |
| 1777653342 | 18.89° C | 39% | 1015.9 hPa | 0 mm | - | - | - |
| 1777652140 | 19.44° C | 39% | 1015.9 hPa | 0 mm | - | - | - |
| 1777651840 | 20° C | 39% | 1016 hPa | 0 mm | - | - | - |
| 1777649741 | 20° C | 38% | 1016 hPa | 0 mm | - | - | - |
| 1777648541 | 19.44° C | 37% | 1016 hPa | 0 mm | - | - | - |
| 1777647941 | 19.44° C | 37% | 1016.2 hPa | 0 mm | - | - | - |
| 1777646741 | 19.44° C | 37% | 1016.2 hPa | 0 mm | - | - | - |
| 1777645840 | 19.44° C | 36% | 1016.5 hPa | 0 mm | - | - | - |
| 1777643139 | 18.89° C | 38% | 1016.8 hPa | 0 mm | - | - | - |
| 1777639840 | 18.33° C | 38% | 1017.5 hPa | 0 mm | - | - | - |
| 1777635639 | 16.67° C | 42% | 1017.8 hPa | 0 mm | - | - | - |
| 1777635338 | 16.67° C | 41% | 1017.8 hPa | 0 mm | - | - | - |
| 1777635038 | 16.67° C | 41% | 1017.9 hPa | 0 mm | - | - | - |
| 1777634139 | 16.67° C | 45% | 1018.1 hPa | 0 mm | - | - | - |
| 1777633240 | 16.11° C | 44% | 1018.4 hPa | 0 mm | - | - | - |
| 1777631737 | 15.56° C | 47% | 1018.3 hPa | 0 mm | - | - | - |
| 1777626336 | 13.89° C | 51% | 1019 hPa | 0 mm | - | - | - |
| 1777626039 | 13.33° C | 50% | 1019 hPa | 0 mm | - | - | - |
| 1777625137 | 12.78° C | 52% | 1018.9 hPa | 0 mm | - | - | - |
| 1777623637 | 12.22° C | 53% | 1019.1 hPa | 0 mm | - | - | - |
| 1777623337 | 12.22° C | 55% | 1019.2 hPa | 0 mm | - | - | - |
| 1777622736 | 11.67° C | 57% | 1019.3 hPa | 0 mm | - | - | - |
| 1777621836 | 10.56° C | 59% | 1019.2 hPa | 0 mm | - | - | - |
* Rain latest hour (hover to see other rain measurements)
** Current wind speed in m/s (hover to see current wind gust speed)